createdAt,value
2023-05-17T00:00:40.755Z,2.700
2023-05-17T00:01:38.403Z,2.400
2023-05-17T00:02:38.758Z,2.000
2023-05-17T00:03:38.511Z,2.100
2023-05-17T00:04:38.170Z,2.000
2023-05-17T00:06:38.269Z,2.100
2023-05-17T00:07:37.964Z,1.900
2023-05-17T00:08:38.321Z,2.300
2023-05-17T00:10:38.258Z,2.300
2023-05-17T00:11:38.393Z,1.800
2023-05-17T00:12:38.406Z,1.700
2023-05-17T00:13:38.541Z,2.000
2023-05-17T00:14:38.676Z,1.700
2023-05-17T00:15:38.678Z,2.200
2023-05-17T00:16:38.770Z,2.000
2023-05-17T00:17:39.420Z,2.000
2023-05-17T00:18:38.832Z,1.800
2023-05-17T00:20:38.129Z,2.300
2023-05-17T00:21:38.233Z,1.900
2023-05-17T00:22:38.403Z,2.100
2023-05-17T00:23:38.330Z,2.000
2023-05-17T00:24:37.769Z,1.900
2023-05-17T00:25:38.948Z,2.200
2023-05-17T00:27:37.849Z,2.000
2023-05-17T00:28:38.814Z,1.700
2023-05-17T00:29:38.277Z,1.900
2023-05-17T00:30:38.051Z,2.100
2023-05-17T00:31:37.466Z,2.200
2023-05-17T00:32:38.473Z,1.900
2023-05-17T00:33:37.999Z,2.200
2023-05-17T00:34:38.750Z,2.000
2023-05-17T00:35:38.619Z,2.100
2023-05-17T00:36:38.496Z,2.200
2023-05-17T00:37:38.607Z,1.900
2023-05-17T00:38:38.731Z,1.900
2023-05-17T00:39:38.999Z,2.000
2023-05-17T00:40:38.856Z,2.400
2023-05-17T00:41:38.988Z,2.400
2023-05-17T00:42:39.232Z,1.900
2023-05-17T00:43:38.269Z,1.900
2023-05-17T00:44:38.209Z,2.200
2023-05-17T00:45:38.701Z,1.900
2023-05-17T00:46:38.123Z,1.800
2023-05-17T00:47:37.967Z,2.500
2023-05-17T00:48:39.356Z,2.200
2023-05-17T00:49:38.064Z,2.000
2023-05-17T00:50:37.546Z,2.100
2023-05-17T00:51:38.151Z,1.900
2023-05-17T00:52:37.993Z,1.700
2023-05-17T00:53:39.043Z,2.000
2023-05-17T00:54:37.485Z,2.000
2023-05-17T00:55:38.701Z,2.300
2023-05-17T00:56:38.182Z,2.300
2023-05-17T00:57:38.390Z,1.800
2023-05-17T00:58:38.446Z,1.800
2023-05-17T00:59:38.581Z,2.000
2023-05-17T01:00:38.622Z,1.900
2023-05-17T01:01:38.247Z,1.800
2023-05-17T01:02:38.153Z,2.300
2023-05-17T01:03:38.648Z,1.900
2023-05-17T01:04:39.095Z,2.100
2023-05-17T01:05:38.446Z,2.100
2023-05-17T01:06:38.207Z,2.100
2023-05-17T01:07:38.283Z,2.100
2023-05-17T01:08:38.350Z,2.100
2023-05-17T01:09:38.585Z,1.800
2023-05-17T01:10:38.477Z,2.200
2023-05-17T01:11:38.653Z,2.000
2023-05-17T01:12:38.712Z,1.800
2023-05-17T01:13:38.766Z,2.000
2023-05-17T01:14:38.971Z,1.900
2023-05-17T01:15:39.036Z,2.300
2023-05-17T01:16:39.215Z,2.600
2023-05-17T01:17:38.667Z,2.000
2023-05-17T01:18:39.022Z,2.200
2023-05-17T01:19:38.704Z,1.800
2023-05-17T01:21:37.844Z,2.100
2023-05-17T01:22:38.469Z,2.100
2023-05-17T01:23:37.896Z,2.400
2023-05-17T01:24:38.833Z,2.100
2023-05-17T01:25:38.481Z,2.300
2023-05-17T01:26:38.003Z,2.100
2023-05-17T01:27:38.643Z,2.400
2023-05-17T01:28:38.235Z,1.900
2023-05-17T01:29:38.411Z,2.100
2023-05-17T01:30:38.430Z,1.900
2023-05-17T01:31:38.472Z,1.900
2023-05-17T01:32:39.119Z,1.900
2023-05-17T01:33:38.593Z,1.800
2023-05-17T01:34:38.904Z,1.900
2023-05-17T01:35:39.041Z,2.000
2023-05-17T01:37:37.952Z,2.200
2023-05-17T01:38:39.084Z,2.300
2023-05-17T01:39:37.537Z,1.800
2023-05-17T01:40:38.125Z,1.800
2023-05-17T01:41:37.586Z,1.600
2023-05-17T01:42:38.073Z,1.800
2023-05-17T01:43:37.528Z,1.900
2023-05-17T01:44:38.621Z,2.100
2023-05-17T01:45:38.654Z,2.000
2023-05-17T01:46:38.811Z,1.800
2023-05-17T01:47:39.547Z,1.900
2023-05-17T01:48:38.334Z,2.000
2023-05-17T01:49:38.006Z,2.200
2023-05-17T01:50:39.094Z,2.200
2023-05-17T01:51:37.594Z,1.800
2023-05-17T01:52:38.103Z,2.100
2023-05-17T01:53:37.593Z,2.000
2023-05-17T01:54:38.518Z,2.200
2023-05-17T01:55:38.563Z,1.900
2023-05-17T01:56:38.729Z,2.200
2023-05-17T01:57:38.339Z,1.700
2023-05-17T01:58:37.844Z,1.800
2023-05-17T01:59:38.971Z,1.900
2023-05-17T02:00:39.049Z,1.700
2023-05-17T02:01:37.668Z,1.600
2023-05-17T02:02:38.375Z,1.800
2023-05-17T02:03:38.217Z,1.800
2023-05-17T02:04:38.587Z,2.100
2023-05-17T02:05:39.206Z,2.000
2023-05-17T02:06:38.554Z,1.900
2023-05-17T02:07:38.636Z,2.200
2023-05-17T02:08:38.790Z,2.100
2023-05-17T02:09:38.968Z,2.100
2023-05-17T02:11:39.030Z,2.300
2023-05-17T02:12:39.098Z,2.100
2023-05-17T02:13:37.592Z,1.800
2023-05-17T02:14:38.099Z,2.300
2023-05-17T02:15:37.910Z,2.300
2023-05-17T02:16:38.621Z,2.300
2023-05-17T02:17:38.927Z,1.900
2023-05-17T02:18:38.785Z,2.200
2023-05-17T02:19:39.106Z,2.000
2023-05-17T02:20:37.546Z,2.000
2023-05-17T02:21:38.006Z,1.800
2023-05-17T02:22:39.001Z,2.100
2023-05-17T02:23:37.518Z,2.400
2023-05-17T02:24:38.229Z,2.100
2023-05-17T02:25:38.660Z,2.200
2023-05-17T02:26:38.365Z,1.900
2023-05-17T02:27:38.554Z,2.400
2023-05-17T02:28:38.487Z,2.100
2023-05-17T02:29:38.575Z,2.300
2023-05-17T02:30:38.779Z,2.100
2023-05-17T02:32:38.751Z,2.500
2023-05-17T02:33:39.831Z,2.200
2023-05-17T02:34:39.116Z,2.200
2023-05-17T02:35:38.150Z,2.300
2023-05-17T02:36:38.351Z,2.400
2023-05-17T02:37:38.460Z,2.300
2023-05-17T02:38:38.551Z,2.400
2023-05-17T02:39:38.560Z,2.100
2023-05-17T02:40:38.759Z,2.700
2023-05-17T02:41:38.771Z,2.400
2023-05-17T02:42:38.850Z,2.400
2023-05-17T02:43:38.935Z,2.700
2023-05-17T02:44:39.019Z,2.400
2023-05-17T02:45:39.194Z,2.100
2023-05-17T02:46:41.041Z,2.300
2023-05-17T02:47:38.019Z,2.200
2023-05-17T02:48:38.375Z,2.400
2023-05-17T02:49:38.420Z,2.200
2023-05-17T02:50:38.555Z,2.400
2023-05-17T02:51:38.657Z,2.200
2023-05-17T02:52:38.702Z,2.200
2023-05-17T02:53:38.747Z,2.400
2023-05-17T02:54:38.834Z,2.300
2023-05-17T02:55:39.158Z,2.300
2023-05-17T02:56:37.614Z,2.400
2023-05-17T02:57:38.206Z,2.800
2023-05-17T02:58:37.660Z,2.300
2023-05-17T02:59:38.298Z,2.600
2023-05-17T03:00:38.452Z,2.500
2023-05-17T03:01:38.547Z,2.000
2023-05-17T03:02:39.209Z,2.300
2023-05-17T03:03:39.539Z,2.700
2023-05-17T03:04:37.693Z,2.300
2023-05-17T03:05:39.119Z,2.300
2023-05-17T03:06:37.592Z,2.400
2023-05-17T03:07:38.169Z,2.700
2023-05-17T03:08:37.667Z,2.400
2023-05-17T03:09:38.120Z,2.400
2023-05-17T03:10:37.644Z,2.400
2023-05-17T03:11:38.350Z,2.600
2023-05-17T03:12:41.279Z,2.600
2023-05-17T03:13:38.570Z,2.400
2023-05-17T03:14:38.763Z,2.600
2023-05-17T03:15:39.176Z,2.700
2023-05-17T03:16:37.605Z,2.400
2023-05-17T03:17:38.699Z,2.500
2023-05-17T03:18:39.603Z,2.500
2023-05-17T03:19:39.587Z,2.800
2023-05-17T03:20:38.094Z,2.900
2023-05-17T03:21:37.684Z,2.500
2023-05-17T03:22:38.373Z,2.700
2023-05-17T03:23:38.638Z,2.300
2023-05-17T03:24:38.727Z,2.800
2023-05-17T03:25:38.932Z,3.000
2023-05-17T03:26:38.831Z,2.500
2023-05-17T03:27:39.493Z,2.600
2023-05-17T03:28:38.153Z,2.500
2023-05-17T03:29:37.582Z,3.000
2023-05-17T03:30:38.312Z,2.600
2023-05-17T03:31:38.268Z,2.500
2023-05-17T03:32:38.893Z,2.600
2023-05-17T03:33:38.084Z,2.500
2023-05-17T03:34:38.588Z,2.800
2023-05-17T03:35:39.089Z,2.600
2023-05-17T03:36:37.483Z,2.900
2023-05-17T03:37:37.942Z,3.100
2023-05-17T03:38:38.951Z,2.800
2023-05-17T03:39:37.513Z,3.000
2023-05-17T03:40:38.094Z,2.800
2023-05-17T03:41:37.549Z,2.400
2023-05-17T03:42:38.030Z,3.000
2023-05-17T03:43:37.513Z,3.300
2023-05-17T03:44:38.446Z,2.800
2023-05-17T03:45:38.735Z,3.000
2023-05-17T03:46:38.693Z,3.000
2023-05-17T03:47:38.896Z,2.900
2023-05-17T03:48:41.586Z,2.800
2023-05-17T03:50:37.542Z,3.100
2023-05-17T03:51:38.060Z,3.300
2023-05-17T03:52:37.503Z,2.800
2023-05-17T03:53:37.958Z,3.100
2023-05-17T03:54:38.648Z,3.100
2023-05-17T03:55:38.568Z,2.900
2023-05-17T03:56:38.485Z,3.200
2023-05-17T03:57:38.594Z,3.000
2023-05-17T03:58:38.699Z,3.000
2023-05-17T03:59:38.777Z,3.000
2023-05-17T04:00:38.810Z,2.500
2023-05-17T04:01:38.254Z,2.700
2023-05-17T04:03:38.624Z,2.700
2023-05-17T04:04:38.375Z,2.900
2023-05-17T04:05:37.881Z,2.800
2023-05-17T04:06:38.317Z,3.300
2023-05-17T04:07:38.514Z,3.400
2023-05-17T04:08:38.568Z,3.200
2023-05-17T04:09:38.681Z,2.900
2023-05-17T04:10:38.739Z,2.900
2023-05-17T04:11:38.165Z,3.200
2023-05-17T04:12:37.628Z,2.500
2023-05-17T04:13:38.115Z,2.900
2023-05-17T04:14:37.646Z,2.700
2023-05-17T04:15:38.663Z,2.800
2023-05-17T04:16:38.173Z,2.400
2023-05-17T04:17:37.836Z,2.600
2023-05-17T04:18:39.148Z,2.300
2023-05-17T04:19:39.028Z,2.500
2023-05-17T04:20:37.739Z,2.900
2023-05-17T04:21:38.763Z,2.600
2023-05-17T04:22:38.183Z,2.800
2023-05-17T04:23:38.050Z,2.900
2023-05-17T04:24:39.149Z,2.600
2023-05-17T04:25:37.964Z,2.600
2023-05-17T04:26:38.536Z,2.500
2023-05-17T04:27:38.012Z,2.700
2023-05-17T04:28:38.545Z,3.200
2023-05-17T04:29:38.590Z,3.900
2023-05-17T04:30:38.640Z,3.100
2023-05-17T04:31:38.056Z,2.700
2023-05-17T04:32:37.683Z,3.000
2023-05-17T04:33:39.129Z,2.800
2023-05-17T04:34:38.029Z,2.900
2023-05-17T04:35:39.192Z,2.800
2023-05-17T04:36:37.676Z,2.100
2023-05-17T04:37:38.113Z,2.300
2023-05-17T04:38:37.664Z,2.300
2023-05-17T04:39:39.021Z,2.100
2023-05-17T04:40:37.537Z,2.400
2023-05-17T04:41:38.662Z,2.100
2023-05-17T04:42:38.741Z,2.200
2023-05-17T04:43:38.825Z,2.300
2023-05-17T04:44:38.874Z,2.300
2023-05-17T04:45:39.003Z,2.200
2023-05-17T04:46:37.538Z,2.400
2023-05-17T04:47:38.696Z,2.100
2023-05-17T04:48:39.457Z,2.400
2023-05-17T04:49:38.391Z,2.100
2023-05-17T04:50:38.468Z,2.700
2023-05-17T04:51:38.626Z,2.500
2023-05-17T04:52:38.658Z,2.700
2023-05-17T04:53:38.800Z,2.500
2023-05-17T04:54:38.815Z,2.700
2023-05-17T04:55:39.223Z,2.400
2023-05-17T04:56:37.637Z,2.700
2023-05-17T04:57:38.343Z,2.600
2023-05-17T04:58:37.722Z,2.100
2023-05-17T04:59:38.298Z,2.500
2023-05-17T05:00:38.362Z,2.700
2023-05-17T05:01:38.662Z,2.500
2023-05-17T05:02:38.823Z,2.800
2023-05-17T05:03:38.644Z,2.300
2023-05-17T05:04:38.566Z,3.100
2023-05-17T05:05:38.985Z,2.800
2023-05-17T05:06:38.922Z,2.600
2023-05-17T05:08:38.405Z,2.700
2023-05-17T05:09:38.359Z,2.300
2023-05-17T05:10:38.424Z,2.300
2023-05-17T05:12:38.524Z,2.900
2023-05-17T05:13:38.534Z,2.600
2023-05-17T05:14:38.700Z,3.000
2023-05-17T05:15:39.011Z,2.800
2023-05-17T05:16:38.849Z,2.900
2023-05-17T05:17:39.491Z,2.700
2023-05-17T05:18:38.967Z,2.300
2023-05-17T05:19:38.246Z,2.600
2023-05-17T05:20:39.917Z,2.800
2023-05-17T05:21:38.519Z,2.800
2023-05-17T05:22:38.367Z,2.800
2023-05-17T05:23:38.556Z,2.900
2023-05-17T05:24:39.237Z,2.700
2023-05-17T05:25:38.132Z,2.600
2023-05-17T05:26:37.535Z,2.500
2023-05-17T05:27:38.060Z,2.800
2023-05-17T05:28:37.589Z,2.700
2023-05-17T05:29:38.008Z,2.500
2023-05-17T05:30:39.103Z,2.800
2023-05-17T05:31:37.646Z,2.600
2023-05-17T05:32:38.776Z,2.300
2023-05-17T05:33:39.455Z,2.200
2023-05-17T05:34:38.284Z,2.700
2023-05-17T05:35:37.921Z,2.400
2023-05-17T05:36:38.472Z,2.700
2023-05-17T05:37:37.987Z,2.800
2023-05-17T05:38:38.964Z,2.500
2023-05-17T05:39:39.079Z,2.800
2023-05-17T05:40:38.334Z,2.600
2023-05-17T05:41:37.777Z,2.600
2023-05-17T05:42:38.407Z,2.900
2023-05-17T05:43:38.421Z,2.400
2023-05-17T05:44:38.557Z,2.900
2023-05-17T05:45:38.624Z,2.500
2023-05-17T05:46:38.885Z,2.500
2023-05-17T05:47:39.018Z,2.800
2023-05-17T05:48:38.502Z,2.700
2023-05-17T05:50:38.609Z,2.400
2023-05-17T05:51:38.187Z,2.800
2023-05-17T05:52:38.294Z,3.100
2023-05-17T05:53:37.752Z,2.800
2023-05-17T05:54:38.179Z,2.800
2023-05-17T05:55:37.755Z,2.400
2023-05-17T05:56:38.714Z,2.500
2023-05-17T05:57:38.723Z,2.700
2023-05-17T05:58:38.284Z,3.200
2023-05-17T05:59:37.915Z,3.000
2023-05-17T06:01:38.141Z,2.500
2023-05-17T06:02:37.858Z,2.800
2023-05-17T06:04:51.310Z,2.700
2023-05-17T06:05:38.084Z,3.400
2023-05-17T06:06:38.558Z,2.800
2023-05-17T06:08:37.827Z,2.600
2023-05-17T06:09:39.011Z,3.400
2023-05-17T06:10:38.173Z,2.600
2023-05-17T06:11:37.630Z,2.900
2023-05-17T06:12:38.226Z,3.400
2023-05-17T06:13:37.674Z,3.200
2023-05-17T06:14:38.190Z,3.200
2023-05-17T06:15:37.656Z,3.800
2023-05-17T06:16:38.591Z,3.700
2023-05-17T06:17:41.363Z,3.300
2023-05-17T06:18:38.562Z,3.000
2023-05-17T06:19:39.820Z,3.400
2023-05-17T06:20:38.362Z,3.800
2023-05-17T06:21:39.333Z,3.600
2023-05-17T06:22:37.864Z,3.400
2023-05-17T06:23:38.697Z,3.200
2023-05-17T06:24:38.825Z,3.400
2023-05-17T06:25:38.425Z,3.500
2023-05-17T06:26:38.679Z,3.400
2023-05-17T06:27:38.761Z,3.300
2023-05-17T06:28:38.847Z,3.900
2023-05-17T06:29:38.985Z,3.700
2023-05-17T06:30:39.550Z,3.700
2023-05-17T06:31:38.422Z,4.000
2023-05-17T06:32:38.140Z,3.800
2023-05-17T06:33:38.564Z,4.200
2023-05-17T06:34:38.099Z,3.800
2023-05-17T06:35:57.034Z,3.200
2023-05-17T06:37:38.749Z,3.700
2023-05-17T06:38:38.843Z,3.800
2023-05-17T06:39:41.131Z,3.900
2023-05-17T06:40:38.234Z,4.200
2023-05-17T06:41:37.829Z,4.200
2023-05-17T06:42:38.272Z,3.800
2023-05-17T06:43:40.593Z,4.200
2023-05-17T06:44:38.454Z,4.000
2023-05-17T06:45:38.570Z,4.200
2023-05-17T06:46:38.654Z,4.300
2023-05-17T06:47:39.292Z,3.900
2023-05-17T06:48:38.686Z,4.000
2023-05-17T06:50:39.658Z,3.900
2023-05-17T06:51:38.217Z,4.200
2023-05-17T06:52:37.699Z,3.700
2023-05-17T06:53:38.211Z,4.300
2023-05-17T06:54:39.206Z,4.300
2023-05-17T06:55:39.955Z,4.100
2023-05-17T06:56:38.677Z,4.700
2023-05-17T06:57:38.984Z,4.300
2023-05-17T06:58:38.624Z,3.900
2023-05-17T06:59:38.044Z,4.200
2023-05-17T07:00:39.037Z,3.600
2023-05-17T07:01:38.555Z,4.200
2023-05-17T07:02:41.294Z,3.200
2023-05-17T07:03:38.950Z,4.100
2023-05-17T07:04:37.957Z,3.700
2023-05-17T07:05:39.150Z,4.100
2023-05-17T07:06:37.739Z,4.400
2023-05-17T07:07:38.174Z,4.500
2023-05-17T07:08:37.645Z,4.100
2023-05-17T07:09:38.281Z,4.300
2023-05-17T07:10:37.783Z,4.000
2023-05-17T07:11:38.310Z,4.000
2023-05-17T07:12:37.764Z,3.700
2023-05-17T07:13:39.672Z,3.900
2023-05-17T07:14:39.590Z,4.300
2023-05-17T07:15:38.618Z,3.900
2023-05-17T07:16:38.750Z,4.000
2023-05-17T07:17:39.038Z,4.200
2023-05-17T07:18:38.491Z,4.900
2023-05-17T07:19:38.788Z,4.300
2023-05-17T07:20:37.818Z,4.100
2023-05-17T07:21:38.295Z,4.100
2023-05-17T07:22:37.797Z,4.000
2023-05-17T07:23:38.487Z,4.200
2023-05-17T07:24:38.182Z,4.400
2023-05-17T07:25:39.927Z,4.700
2023-05-17T07:26:37.849Z,4.900
2023-05-17T07:27:38.959Z,4.700
2023-05-17T07:28:38.983Z,5.000
2023-05-17T07:29:38.407Z,5.400
2023-05-17T07:30:37.963Z,5.000
2023-05-17T07:31:40.480Z,4.700
2023-05-17T07:32:38.977Z,4.400
2023-05-17T07:35:39.478Z,4.400
2023-05-17T07:36:38.159Z,4.900
2023-05-17T07:37:37.866Z,4.800
2023-05-17T07:38:37.523Z,4.300
2023-05-17T07:39:37.953Z,4.600
2023-05-17T07:40:38.970Z,5.100
2023-05-17T07:41:38.418Z,4.300
2023-05-17T07:42:38.170Z,4.000
2023-05-17T07:43:37.744Z,4.200
2023-05-17T07:44:38.368Z,4.600
2023-05-17T07:45:39.326Z,4.000
2023-05-17T07:46:37.941Z,4.700
2023-05-17T07:47:39.417Z,4.800
2023-05-17T07:48:38.577Z,4.700
2023-05-17T07:49:39.546Z,5.200
2023-05-17T07:50:38.169Z,4.800
2023-05-17T07:51:37.668Z,4.500
2023-05-17T07:52:38.196Z,5.900
2023-05-17T07:53:39.056Z,4.700
2023-05-17T07:54:37.772Z,4.800
2023-05-17T07:55:40.886Z,4.900
2023-05-17T07:56:38.164Z,4.600
2023-05-17T07:57:37.641Z,4.200
2023-05-17T07:58:38.316Z,4.200
2023-05-17T08:00:38.427Z,4.800
2023-05-17T08:01:38.118Z,5.100
2023-05-17T08:02:38.032Z,4.900
2023-05-17T08:03:37.784Z,4.400
2023-05-17T08:04:39.227Z,5.200
2023-05-17T08:05:38.612Z,4.500
2023-05-17T08:06:39.545Z,4.800
2023-05-17T08:07:38.483Z,4.900
2023-05-17T08:08:38.085Z,5.800
2023-05-17T08:09:37.630Z,5.100
2023-05-17T08:10:39.505Z,5.300
2023-05-17T08:11:41.767Z,5.100
2023-05-17T08:12:38.451Z,5.300
2023-05-17T08:13:38.760Z,5.100
2023-05-17T08:14:39.352Z,6.000
2023-05-17T08:16:38.853Z,5.300
2023-05-17T08:17:39.191Z,5.100
2023-05-17T08:18:38.515Z,4.700
2023-05-17T08:19:39.023Z,5.000
2023-05-17T08:20:38.198Z,4.800
2023-05-17T08:21:37.694Z,4.800
2023-05-17T08:22:38.356Z,4.700
2023-05-17T08:23:37.811Z,5.200
2023-05-17T08:24:38.366Z,5.800
2023-05-17T08:25:39.310Z,5.000
2023-05-17T08:26:37.933Z,5.100
2023-05-17T08:27:39.902Z,5.400
2023-05-17T08:28:38.931Z,5.700
2023-05-17T08:29:42.220Z,5.800
2023-05-17T08:30:37.821Z,5.200
2023-05-17T08:31:41.058Z,5.400
2023-05-17T08:32:37.672Z,4.700
2023-05-17T08:33:38.947Z,5.300
2023-05-17T08:34:37.498Z,5.100
2023-05-17T08:35:39.394Z,4.900
2023-05-17T08:36:38.041Z,5.300
2023-05-17T08:37:39.097Z,6.400
2023-05-17T08:38:37.596Z,5.600
2023-05-17T08:39:38.214Z,5.500
2023-05-17T08:40:38.977Z,5.300
2023-05-17T08:41:38.859Z,5.700
2023-05-17T08:42:38.335Z,5.700
2023-05-17T08:43:40.711Z,6.000
2023-05-17T08:44:38.165Z,4.900
2023-05-17T08:45:38.241Z,5.400
2023-05-17T08:46:37.780Z,5.000
2023-05-17T08:47:38.681Z,5.100
2023-05-17T08:48:39.034Z,5.100
2023-05-17T08:49:37.567Z,5.400
2023-05-17T08:50:38.655Z,4.900
2023-05-17T08:51:38.199Z,4.400
2023-05-17T08:52:37.748Z,5.100
2023-05-17T08:53:38.620Z,5.600
2023-05-17T08:54:38.275Z,5.400
2023-05-17T08:55:37.788Z,5.600
2023-05-17T08:56:38.446Z,4.800
2023-05-17T08:57:37.899Z,5.200
2023-05-17T08:58:57.053Z,5.200
2023-05-17T08:59:38.730Z,5.100
2023-05-17T09:00:39.168Z,5.300
2023-05-17T09:01:41.518Z,4.800
2023-05-17T09:02:38.361Z,5.000
2023-05-17T09:03:39.331Z,5.500
2023-05-17T09:04:38.290Z,4.700
2023-05-17T09:05:38.074Z,5.300
2023-05-17T09:06:37.787Z,4.800
2023-05-17T09:07:38.294Z,5.400
2023-05-17T09:09:38.712Z,4.500
2023-05-17T09:10:38.045Z,5.200
2023-05-17T09:11:37.680Z,5.100
2023-05-17T09:12:38.245Z,4.800
2023-05-17T09:13:38.078Z,5.500
2023-05-17T09:16:37.732Z,5.300
2023-05-17T09:17:38.625Z,5.000
2023-05-17T09:18:39.437Z,5.400
2023-05-17T09:19:39.413Z,4.800
2023-05-17T09:20:38.215Z,5.500
2023-05-17T09:21:37.858Z,5.000
2023-05-17T09:22:38.914Z,5.200
2023-05-17T09:23:39.097Z,5.100
2023-05-17T09:24:37.648Z,4.900
2023-05-17T09:25:38.356Z,4.800
2023-05-17T09:26:37.902Z,4.900
2023-05-17T09:27:38.808Z,5.300
2023-05-17T09:28:38.321Z,4.900
2023-05-17T09:29:37.885Z,4.600
2023-05-17T09:30:39.017Z,4.600
2023-05-17T09:33:38.213Z,4.700
2023-05-17T09:34:37.725Z,4.600
2023-05-17T09:35:39.254Z,4.400
2023-05-17T09:36:37.849Z,5.200
2023-05-17T09:37:37.731Z,4.600
2023-05-17T09:38:38.433Z,4.500
2023-05-17T09:39:37.966Z,4.800
2023-05-17T09:40:38.460Z,5.000
2023-05-17T09:41:37.966Z,5.300
2023-05-17T09:42:38.780Z,5.400
2023-05-17T09:43:38.945Z,4.600
2023-05-17T09:44:39.040Z,4.300
2023-05-17T09:45:39.245Z,4.900
2023-05-17T09:46:37.722Z,4.000
2023-05-17T09:47:38.948Z,4.500
2023-05-17T09:48:38.233Z,4.800
2023-05-17T09:49:38.495Z,4.800
2023-05-17T09:50:38.260Z,4.100
2023-05-17T09:51:37.767Z,4.900
2023-05-17T09:52:38.767Z,4.500
2023-05-17T09:53:38.887Z,4.400
2023-05-17T09:54:38.981Z,4.100
2023-05-17T09:55:41.359Z,4.500
2023-05-17T09:56:37.974Z,4.900
2023-05-17T09:58:38.458Z,4.300
2023-05-17T09:59:37.946Z,4.300
2023-05-17T10:00:38.488Z,4.900
2023-05-17T10:01:38.105Z,4.400
2023-05-17T10:03:39.613Z,5.000
2023-05-17T10:04:39.328Z,4.500
2023-05-17T10:05:38.700Z,5.200
2023-05-17T10:06:55.206Z,5.400
2023-05-17T10:07:37.683Z,4.800
2023-05-17T10:08:38.129Z,4.900
2023-05-17T10:09:37.550Z,5.200
2023-05-17T10:10:38.432Z,4.500
2023-05-17T10:11:37.870Z,4.100
2023-05-17T10:12:38.450Z,4.600
2023-05-17T10:13:38.139Z,5.100
2023-05-17T10:14:38.229Z,4.800
2023-05-17T10:15:39.027Z,4.900
2023-05-17T10:16:37.542Z,4.900
2023-05-17T10:17:38.700Z,4.600
2023-05-17T10:18:38.822Z,4.600
2023-05-17T10:19:39.309Z,4.700
2023-05-17T10:20:38.306Z,3.900
2023-05-17T10:21:37.793Z,3.800
2023-05-17T10:22:39.651Z,4.500
2023-05-17T10:23:38.694Z,4.700
2023-05-17T10:24:38.888Z,5.200
2023-05-17T10:25:39.198Z,5.300
2023-05-17T10:26:37.784Z,4.300
2023-05-17T10:27:38.356Z,4.900
2023-05-17T10:28:38.366Z,4.300
2023-05-17T10:29:37.896Z,3.900
2023-05-17T10:30:38.464Z,4.500
2023-05-17T10:31:38.016Z,4.600
2023-05-17T10:32:39.079Z,4.700
2023-05-17T10:33:38.508Z,4.600
2023-05-17T10:34:38.502Z,4.500
2023-05-17T10:35:39.354Z,4.200
2023-05-17T10:36:39.324Z,4.800
2023-05-17T10:37:38.064Z,4.600
2023-05-17T10:38:47.363Z,4.100
2023-05-17T10:39:37.837Z,4.500
2023-05-17T10:40:38.469Z,4.500
2023-05-17T10:41:37.951Z,4.500
2023-05-17T10:42:38.450Z,4.500
2023-05-17T10:43:37.931Z,4.100
2023-05-17T10:44:38.462Z,4.300
2023-05-17T10:45:38.393Z,4.800
2023-05-17T10:46:37.890Z,4.100
2023-05-17T10:47:39.590Z,4.400
2023-05-17T10:48:38.644Z,4.600
2023-05-17T10:49:39.372Z,4.900
2023-05-17T10:50:38.539Z,4.400
2023-05-17T10:51:38.421Z,4.200
2023-05-17T10:52:37.988Z,4.200
2023-05-17T10:53:38.518Z,4.900
2023-05-17T10:54:37.975Z,4.900
2023-05-17T10:55:38.644Z,5.600
2023-05-17T10:56:38.794Z,5.100
2023-05-17T10:57:53.917Z,5.300
2023-05-17T10:58:39.022Z,5.100
2023-05-17T10:59:39.199Z,4.800
2023-05-17T11:00:38.161Z,5.400
2023-05-17T11:01:37.676Z,4.800
2023-05-17T11:02:38.472Z,4.400
2023-05-17T11:03:38.162Z,4.300
2023-05-17T11:04:38.984Z,4.200
2023-05-17T11:05:39.398Z,4.300
2023-05-17T11:06:39.358Z,5.100
2023-05-17T11:07:38.320Z,4.200
2023-05-17T11:08:37.964Z,4.600
2023-05-17T11:09:39.120Z,5.100
2023-05-17T11:10:37.887Z,4.900
2023-05-17T11:11:38.423Z,4.800
2023-05-17T11:12:43.557Z,5.100
2023-05-17T11:14:39.055Z,4.600
2023-05-17T11:15:37.966Z,4.400
2023-05-17T11:16:38.528Z,5.300
2023-05-17T11:17:38.169Z,4.700
2023-05-17T11:18:44.849Z,4.600
2023-05-17T11:21:37.667Z,5.100
2023-05-17T11:22:38.379Z,4.900
2023-05-17T11:23:38.014Z,4.700
2023-05-17T11:24:38.574Z,4.400
2023-05-17T11:26:37.763Z,5.300
2023-05-17T11:27:38.726Z,5.100
2023-05-17T11:28:38.815Z,5.500
2023-05-17T11:29:41.666Z,4.900
2023-05-17T11:30:39.303Z,5.100
2023-05-17T11:31:37.807Z,4.700
2023-05-17T11:32:38.554Z,4.400
2023-05-17T11:33:42.644Z,5.400
2023-05-17T11:34:38.542Z,4.800
2023-05-17T11:36:37.775Z,4.700
2023-05-17T11:37:38.447Z,5.300
2023-05-17T11:38:38.008Z,5.000
2023-05-17T11:39:38.532Z,5.300
2023-05-17T11:40:38.322Z,4.600
2023-05-17T11:41:37.859Z,5.300
2023-05-17T11:42:38.507Z,4.800
2023-05-17T11:43:38.081Z,4.900
2023-05-17T11:44:37.743Z,6.400
2023-05-17T11:45:38.667Z,5.500
2023-05-17T11:46:38.131Z,5.200
2023-05-17T11:47:38.211Z,4.800
2023-05-17T11:48:38.955Z,5.200
2023-05-17T11:49:44.898Z,4.900
2023-05-17T11:51:38.233Z,4.900
2023-05-17T11:52:39.293Z,5.800
2023-05-17T11:53:37.729Z,5.500
2023-05-17T11:54:38.197Z,4.200
2023-05-17T11:55:38.255Z,5.000
2023-05-17T11:56:47.563Z,5.200
2023-05-17T11:57:38.818Z,5.100
2023-05-17T11:58:38.130Z,5.700
2023-05-17T11:59:37.680Z,5.100
2023-05-17T12:00:38.913Z,5.600
2023-05-17T12:01:38.435Z,5.400
2023-05-17T12:02:38.608Z,5.300
2023-05-17T12:03:38.508Z,5.800
2023-05-17T12:04:41.527Z,5.600
2023-05-17T12:05:38.254Z,5.400
2023-05-17T12:07:38.520Z,4.900
2023-05-17T12:08:38.071Z,5.200
2023-05-17T12:09:37.521Z,5.700
2023-05-17T12:10:42.476Z,5.000
2023-05-17T12:11:37.906Z,5.000
2023-05-17T12:12:38.423Z,5.000
2023-05-17T12:13:37.994Z,5.500
2023-05-17T12:14:37.492Z,5.600
2023-05-17T12:15:37.975Z,5.200
2023-05-17T12:16:38.464Z,4.500
2023-05-17T12:17:38.539Z,4.600
2023-05-17T12:18:39.392Z,5.100
2023-05-17T12:19:39.140Z,4.700
2023-05-17T12:21:38.440Z,5.500
2023-05-17T12:22:37.948Z,5.100
2023-05-17T12:23:38.423Z,4.600
2023-05-17T12:24:38.145Z,5.100
2023-05-17T12:25:37.942Z,4.900
2023-05-17T12:26:38.456Z,4.800
2023-05-17T12:27:37.956Z,4.700
2023-05-17T12:28:38.482Z,4.900
2023-05-17T12:29:37.926Z,4.900
2023-05-17T12:30:39.037Z,5.400
2023-05-17T12:31:37.652Z,5.100
2023-05-17T12:32:38.496Z,5.200
2023-05-17T12:33:38.962Z,4.500
2023-05-17T12:34:37.626Z,5.200
2023-05-17T12:35:38.107Z,5.300
2023-05-17T12:36:37.593Z,5.300
2023-05-17T12:37:38.295Z,5.400
2023-05-17T12:38:38.036Z,4.400
2023-05-17T12:39:37.485Z,5.100
2023-05-17T12:40:38.529Z,5.700
2023-05-17T12:41:38.375Z,5.600
2023-05-17T12:42:37.826Z,5.500
2023-05-17T12:43:38.302Z,6.100
2023-05-17T12:44:37.792Z,5.300
2023-05-17T12:45:38.329Z,5.800
2023-05-17T12:46:37.833Z,5.800
2023-05-17T12:47:38.576Z,5.800
2023-05-17T12:48:38.649Z,5.000
2023-05-17T12:49:38.218Z,5.800
2023-05-17T12:50:38.116Z,5.400
2023-05-17T12:51:37.532Z,4.700
2023-05-17T12:52:38.012Z,5.100
2023-05-17T12:53:38.552Z,5.200
2023-05-17T12:54:37.971Z,5.000
2023-05-17T12:55:38.555Z,5.300
2023-05-17T12:56:38.105Z,5.200
2023-05-17T12:57:37.805Z,5.500
2023-05-17T12:58:38.394Z,5.500
2023-05-17T12:59:37.834Z,5.200
2023-05-17T13:00:39.010Z,5.200
2023-05-17T13:01:37.568Z,5.600
2023-05-17T13:02:38.533Z,5.300
2023-05-17T13:03:39.061Z,5.700
2023-05-17T13:04:38.908Z,4.800
2023-05-17T13:05:38.556Z,5.200
2023-05-17T13:07:37.720Z,4.800
2023-05-17T13:08:38.330Z,5.700
2023-05-17T13:09:37.914Z,5.400
2023-05-17T13:10:38.953Z,5.000
2023-05-17T13:11:38.406Z,5.100
2023-05-17T13:12:37.902Z,4.900
2023-05-17T13:13:38.486Z,4.800
2023-05-17T13:14:38.121Z,4.600
2023-05-17T13:15:37.914Z,4.500
2023-05-17T13:16:38.806Z,4.900
2023-05-17T13:17:37.846Z,5.000
2023-05-17T13:18:39.181Z,4.700
2023-05-17T13:19:39.017Z,5.700
2023-05-17T13:20:38.048Z,5.800
2023-05-17T13:21:38.552Z,5.700
2023-05-17T13:22:38.031Z,5.400
2023-05-17T13:23:38.478Z,5.500
2023-05-17T13:24:37.995Z,5.300
2023-05-17T13:25:38.505Z,5.200
2023-05-17T13:26:37.967Z,4.800
2023-05-17T13:27:38.623Z,5.100
2023-05-17T13:28:38.221Z,5.600
2023-05-17T13:29:47.880Z,5.300
2023-05-17T13:31:38.165Z,5.000